Time;durP1;ratioP1;P1;durP2;ratioP2;P2;SDS_P1;SDS_P2;PMS_P1;PMS_P2;Temp;Humidity;BMP_temperature;BMP_pressure;BME280_temperature;BME280_humidity;BME280_pressure;Samples;Min_cycle;Max_cycle;Signal;HPM_P1;HPM_P2
2023/12/04 00:01:47;;;;;;;26.23;13.85;;;;;;;-0.60;100.00;101544.31;4931704;28;20808;-81
2023/12/04 00:04:18;;;;;;;27.13;14.65;;;;;;;-0.60;100.00;101544.31;4966182;29;20043;-81
2023/12/04 00:06:46;;;;;;;25.90;13.93;;;;;;;-0.59;100.00;101543.50;4959946;28;20051;-82
2023/12/04 00:09:15;;;;;;;26.10;13.48;;;;;;;-0.60;100.00;101539.13;4945238;29;20057;-82
2023/12/04 00:11:43;;;;;;;26.10;14.00;;;;;;;-0.60;100.00;101528.78;4936083;28;20640;-81
2023/12/04 00:14:12;;;;;;;26.73;14.38;;;;;;;-0.60;100.00;101532.25;4922324;29;20051;-80
2023/12/04 00:16:40;;;;;;;24.75;13.60;;;;;;;-0.61;100.00;101529.56;4916922;28;20055;-80
2023/12/04 00:19:07;;;;;;;24.90;14.27;;;;;;;-0.60;100.00;101518.44;4953677;29;20496;-81
2023/12/04 00:21:34;;;;;;;25.80;14.25;;;;;;;-0.62;100.00;101515.75;4951442;28;20051;-81
2023/12/04 00:24:04;;;;;;;25.45;13.95;;;;;;;-0.63;100.00;101518.22;4958668;28;20052;-80
2023/12/04 00:26:33;;;;;;;26.07;15.07;;;;;;;-0.63;100.00;101507.88;4975377;29;20049;-80
2023/12/04 00:29:01;;;;;;;27.42;14.05;;;;;;;-0.65;100.00;101505.19;4959631;29;20299;-82
2023/12/04 00:31:29;;;;;;;28.02;14.20;;;;;;;-0.65;100.00;101505.19;4975245;28;20055;-81
2023/12/04 00:33:56;;;;;;;29.63;13.63;;;;;;;-0.64;100.00;101498.34;4949859;29;20043;-82
2023/12/04 00:36:23;;;;;;;23.08;13.98;;;;;;;-0.64;100.00;101495.75;4969216;29;20069;-83
2023/12/04 00:38:51;;;;;;;25.58;14.73;;;;;;;-0.64;100.00;101498.34;4972258;28;20441;-81
2023/12/04 00:41:19;;;;;;;24.88;13.95;;;;;;;-0.65;100.00;101493.94;4952487;29;20051;-80
2023/12/04 00:43:47;;;;;;;29.83;14.48;;;;;;;-0.65;100.00;101488.78;4958417;29;20055;-82
2023/12/04 00:46:15;;;;;;;26.08;14.30;;;;;;;-0.65;100.00;101483.59;4944051;29;20061;-81
2023/12/04 00:48:49;;;;;;;27.33;14.68;;;;;;;-0.63;100.00;101476.81;4939471;28;20063;-83
2023/12/04 00:51:16;;;;;;;27.58;14.18;;;;;;;-0.65;100.00;101478.41;4944312;29;20055;-81
2023/12/04 00:53:46;;;;;;;25.83;14.15;;;;;;;-0.64;100.00;101475.03;4966384;28;20047;-80
2023/12/04 00:56:13;;;;;;;21.70;10.85;;;;;;;-0.64;100.00;101475.03;4971531;28;20035;-81
2023/12/04 00:58:43;;;;;;;23.75;13.07;;;;;;;-0.66;100.00;101471.44;4957431;29;20082;-81
2023/12/04 01:01:11;;;;;;;26.40;13.95;;;;;;;-0.66;100.00;101461.09;4966248;28;20093;-81
2023/12/04 01:03:38;;;;;;;26.73;13.73;;;;;;;-0.66;100.00;101467.19;4942846;29;20051;-82
2023/12/04 01:06:06;;;;;;;24.13;13.32;;;;;;;-0.65;100.00;101461.19;4938716;29;20027;-82
2023/12/04 01:08:34;;;;;;;24.75;14.48;;;;;;;-0.65;100.00;101465.47;4972649;28;20043;-82
2023/12/04 01:11:01;;;;;;;22.05;13.35;;;;;;;-0.67;100.00;101460.22;4948346;28;20051;-81
2023/12/04 01:13:30;;;;;;;23.95;13.93;;;;;;;-0.67;100.00;101460.22;4936904;29;20059;-80
2023/12/04 01:15:57;;;;;;;24.25;14.05;;;;;;;-0.67;100.00;101460.22;4964335;28;20369;-81
2023/12/04 01:18:25;;;;;;;26.15;14.45;;;;;;;-0.67;100.00;101451.56;4965237;29;20048;-80
2023/12/04 01:20:52;;;;;;;25.05;14.63;;;;;;;-0.64;100.00;101459.50;4944993;28;20056;-81
2023/12/04 01:23:20;;;;;;;27.13;14.77;;;;;;;-0.64;100.00;101449.16;4973448;28;20055;-80
2023/12/04 01:25:48;;;;;;;30.13;14.82;;;;;;;-0.67;100.00;101444.69;4968866;28;20155;-81
2023/12/04 01:28:18;;;;;;;26.40;14.07;;;;;;;-0.69;100.00;101446.28;4966848;28;20041;-82
2023/12/04 01:30:46;;;;;;;27.73;14.05;;;;;;;-0.68;100.00;101442.00;4974599;28;20035;-82
2023/12/04 01:33:14;;;;;;;26.02;13.50;;;;;;;-0.69;100.00;101437.63;4985483;28;20047;-81
2023/12/04 01:35:41;;;;;;;25.08;13.95;;;;;;;-0.70;100.00;101443.59;4951758;28;20043;-81
2023/12/04 01:38:09;;;;;;;28.05;15.18;;;;;;;-0.72;100.00;101445.22;4981077;28;20062;-81
2023/12/04 01:40:36;;;;;;;28.38;15.32;;;;;;;-0.74;100.00;101436.47;4969524;28;20049;-82
2023/12/04 01:43:05;;;;;;;28.15;14.52;;;;;;;-0.74;100.00;101439.94;4966973;28;20062;-82
2023/12/04 01:45:33;;;;;;;28.90;15.77;;;;;;;-0.79;100.00;101436.22;4943768;29;20113;-81
2023/12/04 01:48:02;;;;;;;25.65;14.60;;;;;;;-0.80;100.00;101443.06;4943009;29;20527;-81
2023/12/04 01:50:30;;;;;;;28.30;13.98;;;;;;;-0.77;100.00;101438.91;4990956;28;20059;-81
2023/12/04 01:52:57;;;;;;;26.98;14.60;;;;;;;-0.78;100.00;101440.56;4963261;28;20058;-80
2023/12/04 01:55:25;;;;;;;28.05;13.25;;;;;;;-0.78;100.00;101425.03;4939771;29;20059;-81
2023/12/04 01:57:53;;;;;;;29.95;15.25;;;;;;;-0.80;100.00;101427.53;4955130;28;20052;-81
2023/12/04 02:00:21;;;;;;;29.30;14.30;;;;;;;-0.79;100.00;101431.91;4973654;28;20053;-82
2023/12/04 02:02:48;;;;;;;24.98;14.10;;;;;;;-0.79;100.00;101424.16;4973879;29;20039;-81
2023/12/04 02:05:16;;;;;;;25.52;14.18;;;;;;;-0.78;100.00;101422.44;4959114;29;20054;-81
2023/12/04 02:07:44;;;;;;;24.77;13.85;;;;;;;-0.80;100.00;101418.88;4967031;28;20043;-82
2023/12/04 02:10:12;;;;;;;25.27;14.23;;;;;;;-0.82;100.00;101411.03;4959154;28;20054;-81
2023/12/04 02:12:46;;;;;;;27.85;14.48;;;;;;;-0.82;100.00;101418.78;4971211;28;20042;-82
2023/12/04 02:15:15;;;;;;;22.02;13.75;;;;;;;-0.80;100.00;101416.31;4951830;29;20510;-82
2023/12/04 02:17:44;;;;;;;29.45;15.30;;;;;;;-0.80;100.00;101413.72;4975259;29;20057;-81
2023/12/04 02:20:15;;;;;;;23.38;14.23;;;;;;;-0.82;100.00;101413.63;4974070;29;20047;-81
2023/12/04 02:22:42;;;;;;;29.20;14.52;;;;;;;-0.83;100.00;101401.50;4987895;28;20038;-81
2023/12/04 02:25:10;;;;;;;26.98;14.85;;;;;;;-0.80;100.00;101400.78;4947818;29;20039;-82
2023/12/04 02:28:00;;;;;;;30.70;15.13;;;;;;;-0.79;100.00;101395.69;4972412;28;20055;-81
2023/12/04 02:30:31;;;;;;;25.67;14.15;;;;;;;-0.80;100.00;101395.59;4973833;28;20045;-81
2023/12/04 02:33:01;;;;;;;28.17;14.20;;;;;;;-0.79;100.00;101390.50;4958947;29;20055;-81
2023/12/04 02:35:32;;;;;;;27.75;15.18;;;;;;;-0.81;100.00;101386.94;4971679;28;20051;-81
2023/12/04 02:38:01;;;;;;;25.00;13.38;;;;;;;-0.80;100.00;101385.25;4961949;28;20785;-81
2023/12/04 02:40:28;;;;;;;24.77;13.95;;;;;;;-0.79;100.00;101377.56;4952456;29;20042;-81
2023/12/04 02:42:56;;;;;;;28.25;15.65;;;;;;;-0.81;100.00;101374.00;4949041;28;20055;-82
2023/12/04 02:45:25;;;;;;;27.58;15.52;;;;;;;-0.83;100.00;101375.63;4939679;29;20043;-82
2023/12/04 02:47:52;;;;;;;26.85;13.32;;;;;;;-0.83;100.00;101374.75;4981562;28;20392;-82
2023/12/04 02:50:20;;;;;;;27.30;15.35;;;;;;;-0.82;100.00;101373.91;4949068;29;20043;-81
2023/12/04 02:52:53;;;;;;;24.25;13.98;;;;;;;-0.81;100.00;101370.53;4941327;28;20062;-81
2023/12/04 02:55:28;;;;;;;26.80;14.48;;;;;;;-0.81;100.00;101368.84;4965871;28;20051;-82
2023/12/04 02:57:59;;;;;;;26.15;14.68;;;;;;;-0.80;100.00;101367.13;4959912;28;20050;-81
2023/12/04 03:00:27;;;;;;;27.95;15.10;;;;;;;-0.81;100.00;101360.19;4954161;29;20053;-82
2023/12/04 03:02:54;;;;;;;27.75;15.23;;;;;;;-0.83;100.00;101354.91;4947330;29;20059;-82
2023/12/04 03:05:23;;;;;;;26.13;14.93;;;;;;;-0.79;100.00;101353.41;4936564;29;20054;-81
2023/12/04 03:07:52;;;;;;;28.70;15.23;;;;;;;-0.80;100.00;101349.00;4952029;28;20055;-81
2023/12/04 03:10:19;;;;;;;30.42;15.05;;;;;;;-0.80;100.00;101349.91;4952558;29;20051;-82
2023/12/04 03:12:49;;;;;;;28.20;14.82;;;;;;;-0.81;100.00;101358.47;4985662;28;20069;-82
2023/12/04 03:15:17;;;;;;;28.33;14.73;;;;;;;-0.81;100.00;101348.13;4937423;29;20062;-82
2023/12/04 03:17:44;;;;;;;27.33;15.52;;;;;;;-0.79;100.00;101340.47;4952243;29;20046;-81
2023/12/04 03:20:11;;;;;;;28.55;15.90;;;;;;;-0.80;100.00;101334.38;4986138;28;20047;-82
2023/12/04 03:22:40;;;;;;;30.27;14.82;;;;;;;-0.81;100.00;101326.56;4951683;29;20051;-82
2023/12/04 03:25:08;;;;;;;28.85;15.05;;;;;;;-0.80;100.00;101329.19;4922926;29;20060;-82
2023/12/04 03:27:36;;;;;;;30.88;16.65;;;;;;;-0.78;100.00;101329.28;4968477;29;20043;-82
2023/12/04 03:30:05;;;;;;;26.20;15.55;;;;;;;-0.79;100.00;101319.75;4924162;28;20047;-82
2023/12/04 03:32:33;;;;;;;31.00;15.93;;;;;;;-0.79;100.00;101317.16;4968607;28;20524;-82
2023/12/04 03:35:01;;;;;;;26.65;15.20;;;;;;;-0.79;100.00;101310.28;4971138;28;20035;-82
2023/12/04 03:37:28;;;;;;;27.90;15.63;;;;;;;-0.80;100.00;101311.09;4972531;28;20051;-82
2023/12/04 03:39:56;;;;;;;29.80;15.10;;;;;;;-0.79;100.00;101304.22;4944185;28;20067;-82
2023/12/04 03:42:24;;;;;;;28.75;16.05;;;;;;;-0.80;100.00;101297.25;4972610;28;20051;-81
2023/12/04 03:44:52;;;;;;;28.50;15.27;;;;;;;-0.77;100.00;101301.75;4955257;29;20061;-81
2023/12/04 03:47:23;;;;;;;29.50;14.50;;;;;;;-0.76;100.00;101303.50;4948222;28;20058;-82
2023/12/04 03:49:53;;;;;;;28.23;14.23;;;;;;;-0.76;100.00;101298.31;4968631;28;20542;-82
2023/12/04 03:52:23;;;;;;;27.10;14.75;;;;;;;-0.78;100.00;101295.66;4953870;28;20055;-82
2023/12/04 03:54:51;;;;;;;27.98;15.07;;;;;;;-0.77;100.00;101294.84;4939730;29;20077;-81
2023/12/04 03:57:18;;;;;;;27.70;14.63;;;;;;;-0.75;100.00;101287.19;4944219;29;20055;-82
2023/12/04 03:59:46;;;;;;;29.85;16.17;;;;;;;-0.76;100.00;101283.69;4969644;29;20053;-81
2023/12/04 04:02:13;;;;;;;29.98;16.05;;;;;;;-0.74;100.00;101283.78;4951106;29;20055;-82
2023/12/04 04:04:41;;;;;;;28.58;15.23;;;;;;;-0.75;100.00;101282.88;4982505;28;20054;-82
2023/12/04 04:07:11;;;;;;;25.73;15.15;;;;;;;-0.76;100.00;101291.44;4957229;28;20055;-81
2023/12/04 04:09:39;;;;;;;31.65;17.25;;;;;;;-0.75;100.00;101276.84;4971977;29;20039;-81
2023/12/04 04:12:06;;;;;;;29.70;15.48;;;;;;;-0.74;100.00;101276.88;4974163;28;20066;-82
2023/12/04 04:14:34;;;;;;;30.42;15.98;;;;;;;-0.75;100.00;101271.66;4968729;29;20043;-82
2023/12/04 04:17:02;;;;;;;27.70;15.15;;;;;;;-0.74;100.00;101271.72;4950302;29;20047;-81
2023/12/04 04:19:31;;;;;;;32.35;16.05;;;;;;;-0.73;100.00;101255.41;4939088;29;20042;-82
2023/12/04 04:21:59;;;;;;;31.00;16.45;;;;;;;-0.72;100.00;101256.28;4972993;29;20032;-81
2023/12/04 04:24:26;;;;;;;31.38;16.75;;;;;;;-0.71;100.00;101255.50;4955841;29;20051;-82
2023/12/04 04:26:54;;;;;;;31.67;16.50;;;;;;;-0.70;100.00;101246.91;4969828;28;20082;-81
2023/12/04 04:29:21;;;;;;;31.85;16.17;;;;;;;-0.71;100.00;101243.44;4961055;28;20065;-82
2023/12/04 04:31:48;;;;;;;29.67;16.45;;;;;;;-0.70;100.00;101247.81;4934868;28;20421;-80
2023/12/04 04:34:16;;;;;;;33.25;16.80;;;;;;;-0.70;100.00;101247.81;4967614;29;20069;-82
2023/12/04 04:36:44;;;;;;;30.55;15.70;;;;;;;-0.69;100.00;101244.41;4964326;28;20047;-82
2023/12/04 04:39:13;;;;;;;30.67;16.70;;;;;;;-0.67;100.00;101245.38;4948634;29;20056;-82
2023/12/04 04:41:40;;;;;;;31.65;16.25;;;;;;;-0.66;100.00;101254.94;4954885;29;20051;-81
2023/12/04 04:44:08;;;;;;;31.83;16.75;;;;;;;-0.64;100.00;101253.31;4980184;28;20147;-82
2023/12/04 04:46:36;;;;;;;30.27;16.63;;;;;;;-0.62;100.00;101245.63;4971641;29;20039;-82
2023/12/04 04:49:07;;;;;;;35.05;16.58;;;;;;;-0.62;100.00;101243.94;4954072;28;20043;-81
2023/12/04 04:51:34;;;;;;;33.00;15.77;;;;;;;-0.64;100.00;101240.38;4968170;28;20047;-82
2023/12/04 04:54:03;;;;;;;28.98;16.27;;;;;;;-0.64;100.00;101244.66;4970476;28;20059;-82
2023/12/04 04:56:31;;;;;;;29.27;15.88;;;;;;;-0.64;100.00;101249.84;4925173;29;20054;-82
2023/12/04 04:58:58;;;;;;;31.52;16.88;;;;;;;-0.64;100.00;101239.50;4950144;28;20035;-82
2023/12/04 05:01:26;;;;;;;30.55;16.35;;;;;;;-0.63;100.00;101247.31;4956301;28;20320;-82
2023/12/04 05:03:55;;;;;;;31.58;16.58;;;;;;;-0.62;100.00;101246.53;4919706;28;20063;-82
2023/12/04 05:06:23;;;;;;;30.23;16.80;;;;;;;-0.60;100.00;101244.03;4953562;28;20080;-81
2023/12/04 05:08:52;;;;;;;31.48;17.15;;;;;;;-0.59;100.00;101232.84;4964144;28;20040;-80
2023/12/04 05:11:20;;;;;;;34.13;16.02;;;;;;;-0.58;100.00;101245.00;4956863;29;20055;-82
2023/12/04 05:13:47;;;;;;;31.70;16.70;;;;;;;-0.57;100.00;101243.28;4958468;29;20051;-81
2023/12/04 05:16:15;;;;;;;32.97;16.75;;;;;;;-0.59;100.00;101245.78;4948305;29;20055;-81
2023/12/04 05:18:43;;;;;;;33.88;17.38;;;;;;;-0.59;100.00;101245.78;4955998;29;20055;-82
2023/12/04 05:21:12;;;;;;;31.30;16.80;;;;;;;-0.60;100.00;101238.84;4948481;28;20530;-82
2023/12/04 05:23:40;;;;;;;37.55;17.70;;;;;;;-0.58;100.00;101236.34;4954954;28;20518;-81
2023/12/04 05:26:07;;;;;;;36.45;17.25;;;;;;;-0.59;100.00;101230.25;4933070;29;20055;-81
2023/12/04 05:28:35;;;;;;;31.52;16.77;;;;;;;-0.61;100.00;101222.41;4970988;28;20059;-82
2023/12/04 05:31:02;;;;;;;31.40;16.92;;;;;;;-0.58;100.00;101220.81;4942928;28;20051;-81
2023/12/04 05:33:31;;;;;;;30.35;16.77;;;;;;;-0.59;100.00;101227.66;4984025;28;20069;-81
2023/12/04 05:36:00;;;;;;;29.88;16.60;;;;;;;-0.60;100.00;101219.03;4936208;29;20067;-81
2023/12/04 05:38:27;;;;;;;29.85;16.73;;;;;;;-0.58;100.00;101215.63;4933447;28;20073;-81
2023/12/04 05:40:55;;;;;;;35.50;17.73;;;;;;;-0.58;100.00;101210.47;4963870;28;20066;-80
2023/12/04 05:43:22;;;;;;;34.40;17.95;;;;;;;-0.58;100.00;101211.34;4969157;28;20146;-81
2023/12/04 05:45:51;;;;;;;29.23;15.57;;;;;;;-0.57;100.00;101207.03;4943995;28;20055;-81
2023/12/04 05:48:21;;;;;;;34.22;17.50;;;;;;;-0.58;100.00;101206.16;4975998;28;20049;-80
2023/12/04 05:50:48;;;;;;;30.50;15.82;;;;;;;-0.58;100.00;101206.16;4947793;29;20055;-80
2023/12/04 05:53:16;;;;;;;34.22;16.10;;;;;;;-0.57;100.00;101207.03;4958286;28;20066;-81
2023/12/04 05:55:46;;;;;;;31.38;17.35;;;;;;;-0.55;100.00;101195.97;4931725;29;20054;-81
2023/12/04 05:58:14;;;;;;;31.85;16.20;;;;;;;-0.53;100.00;101199.56;4923788;28;20050;-82
2023/12/04 06:00:42;;;;;;;31.25;16.90;;;;;;;-0.56;100.00;101194.19;4923569;28;20497;-80
2023/12/04 06:03:09;;;;;;;30.10;16.50;;;;;;;-0.59;100.00;101199.19;4895311;29;20051;-81
2023/12/04 06:05:37;;;;;;;31.40;17.23;;;;;;;-0.61;100.00;101191.34;4957181;28;20067;-81
2023/12/04 06:08:05;;;;;;;32.42;16.55;;;;;;;-0.64;100.00;101188.59;4954287;28;20055;-81
2023/12/04 06:10:34;;;;;;;33.95;17.30;;;;;;;-0.64;100.00;101190.31;4902146;28;25557;-79
2023/12/04 06:13:02;;;;;;;31.23;15.95;;;;;;;-0.65;100.00;101188.53;4942921;28;20043;-80
2023/12/04 06:15:30;;;;;;;31.02;16.40;;;;;;;-0.65;100.00;101188.53;4982251;28;20044;-79
2023/12/04 06:17:58;;;;;;;30.63;16.23;;;;;;;-0.64;100.00;101180.84;4953564;28;20042;-80
2023/12/04 06:20:58;;;;;;;30.58;15.43;;;;;;;-0.62;100.00;101173.16;4968265;28;20051;-79
2023/12/04 06:23:28;;;;;;;28.25;15.95;;;;;;;-0.61;100.00;101174.94;4953463;28;20050;-79
2023/12/04 06:26:01;;;;;;;33.35;16.27;;;;;;;-0.62;100.00;101178.34;4948164;28;20037;-81
2023/12/04 06:28:29;;;;;;;33.92;17.63;;;;;;;-0.62;100.00;101176.63;4940293;28;20043;-81
2023/12/04 06:30:57;;;;;;;33.78;16.58;;;;;;;-0.61;100.00;101175.81;4941018;29;20054;-78
2023/12/04 06:33:25;;;;;;;29.33;16.40;;;;;;;-0.61;100.00;101172.34;4902258;29;20050;-79
2023/12/04 06:35:52;;;;;;;28.15;15.52;;;;;;;-0.62;100.00;101165.41;4941244;29;20047;-79
2023/12/04 06:38:24;;;;;;;29.58;17.40;;;;;;;-0.61;100.00;101160.28;4965369;28;20047;-80
2023/12/04 06:40:52;;;;;;;32.35;17.08;;;;;;;-0.60;100.00;101159.47;4923240;28;20043;-79
2023/12/04 06:43:19;;;;;;;33.78;17.90;;;;;;;-0.57;100.00;101155.28;4965205;28;20055;-80
2023/12/04 06:45:47;;;;;;;31.05;16.45;;;;;;;-0.57;100.00;101158.75;4916669;29;20055;-79
2023/12/04 06:48:15;;;;;;;29.80;15.40;;;;;;;-0.57;100.00;101158.75;4917095;28;20051;-79
2023/12/04 06:50:43;;;;;;;29.23;15.48;;;;;;;-0.56;100.00;101152.78;4951595;29;20043;-79
2023/12/04 06:53:13;;;;;;;27.20;15.32;;;;;;;-0.55;100.00;101149.34;4952122;28;20051;-79
2023/12/04 06:55:40;;;;;;;27.88;15.57;;;;;;;-0.53;100.00;101150.38;4930857;28;20429;-80
2023/12/04 06:58:08;;;;;;;32.08;15.90;;;;;;;-0.52;100.00;101146.06;4931907;29;20081;-80
2023/12/04 07:00:35;;;;;;;27.38;15.48;;;;;;;-0.52;100.00;101133.13;4952836;29;20043;-80
2023/12/04 07:03:03;;;;;;;29.63;16.25;;;;;;;-0.51;100.00;101134.88;4966322;28;20050;-79
2023/12/04 07:05:30;;;;;;;27.77;15.50;;;;;;;-0.50;100.00;101134.97;4904043;29;20051;-79
2023/12/04 07:07:58;;;;;;;25.90;14.85;;;;;;;-0.46;100.00;101133.44;4950635;29;20047;-80
2023/12/04 07:10:25;;;;;;;26.05;15.63;;;;;;;-0.45;100.00;101135.22;4951742;29;20059;-79
2023/12/04 07:12:52;;;;;;;26.90;15.00;;;;;;;-0.45;100.00;101135.22;4943338;28;20059;-80
2023/12/04 07:15:20;;;;;;;27.15;15.25;;;;;;;-0.45;100.00;101133.53;4952365;29;20062;-79
2023/12/04 07:17:48;;;;;;;25.63;14.70;;;;;;;-0.47;100.00;101132.56;4965614;28;20051;-79
2023/12/04 07:20:15;;;;;;;26.55;15.38;;;;;;;-0.47;100.00;101132.56;4900952;28;20062;-79
2023/12/04 07:22:43;;;;;;;26.33;14.43;;;;;;;-0.45;100.00;101132.63;4920988;29;20055;-79
2023/12/04 07:25:10;;;;;;;26.80;14.48;;;;;;;-0.45;100.00;101132.63;4957085;28;20039;-80
2023/12/04 07:27:37;;;;;;;26.95;14.75;;;;;;;-0.43;100.00;101131.91;4942473;28;20062;-80
2023/12/04 07:30:06;;;;;;;31.17;15.63;;;;;;;-0.43;100.00;101124.13;4933067;29;20051;-79
2023/12/04 07:32:35;;;;;;;26.33;15.43;;;;;;;-0.44;100.00;101117.16;4922260;29;20066;-80
2023/12/04 07:35:04;;;;;;;33.72;17.52;;;;;;;-0.45;100.00;101117.97;4897110;28;20078;-80
2023/12/04 07:37:32;;;;;;;26.38;14.60;;;;;;;-0.47;100.00;101119.59;4949108;29;20058;-80
2023/12/04 07:39:59;;;;;;;27.25;15.02;;;;;;;-0.49;100.00;101110.88;4945568;29;20058;-80
2023/12/04 07:42:27;;;;;;;27.48;15.10;;;;;;;-0.48;100.00;101112.63;4945129;28;20444;-79
2023/12/04 07:44:54;;;;;;;24.42;13.55;;;;;;;-0.49;100.00;101112.56;4918868;29;20067;-80
2023/12/04 07:47:22;;;;;;;29.75;16.42;;;;;;;-0.50;100.00;101114.25;4953555;28;20051;-80
2023/12/04 07:49:52;;;;;;;24.63;14.20;;;;;;;-0.49;100.00;101108.28;4925728;28;20059;-80
2023/12/04 07:52:19;;;;;;;33.38;15.45;;;;;;;-0.48;100.00;101104.88;4966127;28;20046;-80
2023/12/04 07:54:47;;;;;;;28.25;15.60;;;;;;;-0.46;100.00;101102.38;4925021;29;20055;-80
2023/12/04 07:57:16;;;;;;;26.52;15.45;;;;;;;-0.46;100.00;101090.31;4949579;29;20055;-79
2023/12/04 07:59:43;;;;;;;25.27;14.38;;;;;;;-0.45;100.00;101096.38;4942861;28;20055;-80
2023/12/04 08:02:10;;;;;;;28.20;15.73;;;;;;;-0.44;100.00;101095.56;4938152;29;20070;-80
2023/12/04 08:04:38;;;;;;;26.58;15.07;;;;;;;-0.43;100.00;101092.19;4939201;29;20058;-80
2023/12/04 08:07:05;;;;;;;26.27;14.90;;;;;;;-0.43;100.00;101095.66;4921596;28;20074;-80
2023/12/04 08:09:33;;;;;;;21.55;12.18;;;;;;;-0.41;100.00;101099.19;4959942;28;20062;-80
2023/12/04 08:12:00;;;;;;;18.75;9.93;;;;;;;-0.38;100.00;101100.16;4931803;29;20063;-80
2023/12/04 08:14:28;;;;;;;21.42;10.32;;;;;;;-0.37;100.00;101096.78;4919763;28;20053;-80
2023/12/04 08:16:55;;;;;;;19.60;9.75;;;;;;;-0.36;100.00;101094.25;4944520;29;20417;-79
2023/12/04 08:19:23;;;;;;;19.08;10.23;;;;;;;-0.33;100.00;101085.75;4958632;28;20508;-79
2023/12/04 08:21:51;;;;;;;18.13;10.00;;;;;;;-0.32;100.00;101088.44;4915217;29;20062;-79
2023/12/04 08:24:19;;;;;;;18.27;9.82;;;;;;;-0.30;100.00;101086.81;4926220;28;20063;-80
2023/12/04 08:26:46;;;;;;;18.38;9.70;;;;;;;-0.28;100.00;101092.97;4924281;29;20055;-80
2023/12/04 08:29:14;;;;;;;14.77;8.13;;;;;;;-0.27;100.00;101089.53;4939825;29;20040;-80
2023/12/04 08:31:41;;;;;;;15.93;8.82;;;;;;;-0.23;100.00;101078.53;4948057;28;20150;-81
2023/12/04 08:34:08;;;;;;;16.67;9.43;;;;;;;-0.20;100.00;101083.88;4938845;29;20062;-80
2023/12/04 08:36:36;;;;;;;15.55;8.75;;;;;;;-0.17;100.00;101074.47;4936638;28;20465;-80
2023/12/04 08:39:13;;;;;;;17.20;8.88;;;;;;;-0.15;100.00;101073.75;4933724;28;20047;-80
2023/12/04 08:41:40;;;;;;;13.13;7.75;;;;;;;-0.13;100.00;101081.56;4908652;29;20063;-80
2023/12/04 08:44:21;;;;;;;15.13;8.70;;;;;;;-0.13;100.00;101077.31;4946257;29;20488;-79
2023/12/04 08:46:48;;;;;;;14.40;8.05;;;;;;;-0.09;100.00;101081.81;4935840;28;20051;-80
2023/12/04 08:49:16;;;;;;;15.48;8.63;;;;;;;-0.06;100.00;101062.94;4927830;29;20402;-79
2023/12/04 08:51:43;;;;;;;13.57;7.43;;;;;;;-0.03;100.00;101068.28;4928627;29;20416;-79
2023/12/04 08:54:11;;;;;;;14.95;8.45;;;;;;;-0.01;100.00;101070.13;4910121;29;20047;-80
2023/12/04 08:56:42;;;;;;;12.90;7.35;;;;;;;0.04;100.00;101061.69;4976758;28;20046;-80
2023/12/04 08:59:10;;;;;;;13.15;7.40;;;;;;;0.07;100.00;101069.63;4945264;29;20063;-80
2023/12/04 09:01:37;;;;;;;15.25;7.80;;;;;;;0.08;100.00;101063.63;4921946;29;20062;-79
2023/12/04 09:04:07;;;;;;;13.77;7.50;;;;;;;0.08;100.00;101061.03;4922707;29;20067;-79
2023/12/04 09:06:35;;;;;;;15.45;7.88;;;;;;;0.10;100.00;101064.59;4958161;28;20062;-80
2023/12/04 09:09:05;;;;;;;;;;;;;;;0.12;100.00;101062.97;4928457;28;20046;-80
2023/12/04 09:11:42;;;;;;;14.57;7.47;;;;;;;0.15;100.00;101065.69;4970236;28;19922;-80
2023/12/04 09:14:10;;;;;;;12.65;7.75;;;;;;;0.16;100.00;101057.13;4940465;29;20770;-80
2023/12/04 09:16:38;;;;;;;12.45;7.97;;;;;;;0.18;100.00;101061.53;4932612;29;20051;-80
2023/12/04 09:19:05;;;;;;;13.70;7.15;;;;;;;0.23;100.00;101061.78;4940025;29;20050;-81
2023/12/04 09:21:33;;;;;;;13.35;7.65;;;;;;;0.24;100.00;101063.53;4957824;29;20062;-81
2023/12/04 09:24:01;;;;;;;13.63;7.15;;;;;;;0.26;100.00;101058.44;4934016;29;20102;-80
2023/12/04 09:26:29;;;;;;;13.70;7.03;;;;;;;0.27;100.00;101058.53;4882920;29;20051;-80
2023/12/04 09:28:59;;;;;;;13.27;7.15;;;;;;;0.27;100.00;101058.53;4919699;29;20698;-79
2023/12/04 09:31:26;;;;;;;14.00;7.35;;;;;;;0.28;100.00;101065.47;4920531;29;20055;-78
2023/12/04 09:33:53;;;;;;;13.13;7.72;;;;;;;0.27;100.00;101062.81;4951269;29;20051;-81
2023/12/04 09:36:21;;;;;;;19.90;9.95;;;;;;;0.27;100.00;101060.25;4967445;28;20054;-79
2023/12/04 09:38:48;;;;;;;20.77;11.80;;;;;;;0.29;100.00;101059.47;4951111;29;20046;-81
2023/12/04 09:41:16;;;;;;;12.95;8.25;;;;;;;0.28;100.00;101060.28;4917522;28;20055;-80
2023/12/04 09:43:44;;;;;;;13.82;7.82;;;;;;;0.28;100.00;101051.63;4949148;29;20051;-79
2023/12/04 09:46:12;;;;;;;13.90;8.68;;;;;;;0.26;100.00;101056.72;4936033;29;20066;-81
2023/12/04 09:48:42;;;;;;;12.45;7.75;;;;;;;0.28;100.00;101047.31;4929303;29;20055;-79
2023/12/04 09:51:11;;;;;;;14.70;8.88;;;;;;;0.29;100.00;101051.72;4952720;28;20078;-82
2023/12/04 09:53:40;;;;;;;16.05;9.43;;;;;;;0.29;100.00;101056.00;4921593;29;20047;-79
2023/12/04 09:56:09;;;;;;;14.57;8.13;;;;;;;0.31;100.00;101054.38;4895501;28;20062;-79
2023/12/04 09:58:40;;;;;;;12.10;7.30;;;;;;;0.33;100.00;101047.56;4951753;29;20058;-80
2023/12/04 10:01:08;;;;;;;17.35;9.13;;;;;;;0.36;100.00;101046.00;4947535;29;20047;-80
2023/12/04 10:03:36;;;;;;;15.98;9.10;;;;;;;0.37;100.00;101037.41;4912130;29;20458;-80
2023/12/04 10:06:05;;;;;;;14.88;7.45;;;;;;;0.39;100.00;101038.34;4935025;29;20599;-80
2023/12/04 10:08:33;;;;;;;16.25;8.98;;;;;;;0.43;100.00;101033.31;4936219;29;20083;-80
2023/12/04 10:11:01;;;;;;;16.33;9.88;;;;;;;0.44;100.00;101041.19;4948558;29;20078;-79
2023/12/04 10:13:28;;;;;;;14.57;7.80;;;;;;;0.47;100.00;101038.72;4926484;28;20057;-79
2023/12/04 10:16:31;;;;;;;13.63;7.60;;;;;;;0.48;100.00;101029.25;4911791;29;20063;-79
2023/12/04 10:19:14;;;;;;;12.25;7.97;;;;;;;0.51;100.00;101022.50;4922010;28;20055;-79
2023/12/04 10:21:42;;;;;;;16.60;7.80;;;;;;;0.53;100.00;101015.69;4951036;28;20073;-79
2023/12/04 10:24:10;;;;;;;14.90;7.95;;;;;;;0.57;100.00;101014.13;4948910;29;20082;-80
2023/12/04 10:26:50;;;;;;;12.82;7.90;;;;;;;0.60;100.00;101014.25;4920938;29;20481;-79
2023/12/04 10:29:18;;;;;;;14.15;7.70;;;;;;;0.60;100.00;101000.41;4930120;28;20058;-79
2023/12/04 10:31:47;;;;;;;13.45;7.82;;;;;;;0.62;100.00;101010.00;4951596;28;20047;-79
2023/12/04 10:34:15;;;;;;;13.43;7.90;;;;;;;0.66;100.00;101001.59;4896731;28;20106;-79
2023/12/04 10:36:45;;;;;;;13.25;6.93;;;;;;;0.69;100.00;101003.41;4952014;29;20054;-80
2023/12/04 10:39:13;;;;;;;14.48;7.70;;;;;;;0.71;100.00;100996.59;4950340;28;20555;-80
2023/12/04 10:41:41;;;;;;;10.43;6.57;;;;;;;0.74;100.00;100992.44;4931256;29;20062;-81
2023/12/04 10:44:08;;;;;;;10.75;6.88;;;;;;;0.76;100.00;100992.50;4881531;28;20051;-80
2023/12/04 10:46:41;;;;;;;10.27;6.72;;;;;;;0.79;100.00;100992.63;4966184;28;20066;-80
2023/12/04 10:49:09;;;;;;;11.07;7.03;;;;;;;0.80;100.00;100988.34;4947971;29;20039;-80
2023/12/04 10:51:38;;;;;;;10.13;6.70;;;;;;;0.83;100.00;100983.28;4922182;29;20055;-79
2023/12/04 10:54:05;;;;;;;12.77;7.22;;;;;;;0.85;100.00;100986.81;4903883;28;20064;-79
2023/12/04 10:56:38;;;;;;;12.88;7.22;;;;;;;0.87;100.00;100986.09;4917118;29;20051;-79
2023/12/04 10:59:12;;;;;;;10.48;6.97;;;;;;;0.87;100.00;100987.78;4914979;28;20051;-79
2023/12/04 11:01:44;;;;;;;10.43;6.50;;;;;;;0.86;100.00;100970.44;4937110;28;20123;-80
2023/12/04 11:04:19;;;;;;;11.43;6.70;;;;;;;0.87;100.00;100972.22;4946397;29;20058;-80
2023/12/04 11:06:52;;;;;;;10.90;5.95;;;;;;;0.89;100.00;100965.38;4937620;28;20051;-80
2023/12/04 11:09:21;;;;;;;11.23;6.70;;;;;;;0.88;100.00;100961.03;4933654;28;20058;-79
2023/12/04 11:11:53;;;;;;;11.85;7.07;;;;;;;0.90;100.00;100961.97;4944334;28;20056;-80